Time;durP1;ratioP1;P1;durP2;ratioP2;P2;SDS_P1;SDS_P2;PMS_P1;PMS_P2;Temp;Humidity;BMP_temperature;BMP_pressure;BME280_temperature;BME280_humidity;BME280_pressure;Samples;Min_cycle;Max_cycle;Signal;HPM_P1;HPM_P2
2022/12/20 00:04:53;;;;;;;51.60;22.20;;;;;;;2.38;100.00;100761.63;660735;1296;139015;-84
2022/12/20 00:19:56;;;;;;;53.20;24.50;;;;;;;2.51;100.00;100752.91;660526;1310;141914;-83
2022/12/20 00:35:00;;;;;;;46.20;20.90;;;;;;;2.57;100.00;100729.50;660844;1299;138984;-83
2022/12/20 00:50:03;;;;;;;43.10;21.40;;;;;;;2.69;100.00;100717.89;661022;1305;138867;-83
2022/12/20 01:05:07;;;;;;;46.80;21.00;;;;;;;2.77;100.00;100712.48;661061;1312;139417;-85
2022/12/20 01:20:12;;;;;;;47.50;22.10;;;;;;;2.78;100.00;100707.06;660762;1312;139054;-86
2022/12/20 01:35:15;;;;;;;46.30;22.20;;;;;;;2.88;100.00;100710.91;660906;1307;139067;-86
2022/12/20 01:50:19;;;;;;;49.20;21.00;;;;;;;2.85;100.00;100690.66;660571;1312;139007;-85
2022/12/20 02:05:22;;;;;;;46.10;21.80;;;;;;;2.95;100.00;100673.41;660624;1312;139117;-83
2022/12/20 02:20:39;;;;;;;56.60;22.40;;;;;;;3.00;100.00;100668.18;661015;1303;139056;-83
2022/12/20 02:35:43;;;;;;;54.00;23.00;;;;;;;3.13;100.00;100657.84;660820;1299;139059;-84
2022/12/20 02:50:51;;;;;;;66.30;29.40;;;;;;;3.17;100.00;100652.77;660823;1312;139148;-83
2022/12/20 03:05:55;;;;;;;59.00;24.20;;;;;;;3.26;100.00;100650.08;660980;1312;139381;-84
2022/12/20 03:20:59;;;;;;;58.90;26.60;;;;;;;3.33;100.00;100626.91;660996;1312;140084;-84
2022/12/20 03:36:03;;;;;;;64.60;26.70;;;;;;;3.42;100.00;100608.93;661165;1312;139191;-83
2022/12/20 03:51:06;;;;;;;58.20;25.90;;;;;;;3.43;100.00;100609.06;660752;1312;139325;-83
2022/12/20 04:06:10;;;;;;;61.80;26.70;;;;;;;3.53;100.00;100619.61;661086;1312;139239;-83
2022/12/20 04:21:15;;;;;;;58.70;26.80;;;;;;;3.52;100.00;100623.65;661153;1313;139112;-83
2022/12/20 04:36:20;;;;;;;60.50;26.70;;;;;;;3.64;100.00;100606.41;661048;1311;139540;-83
2022/12/20 04:51:26;;;;;;;58.50;28.00;;;;;;;3.73;100.00;100598.81;660712;1305;139255;-82
2022/12/20 05:06:30;;;;;;;60.60;26.80;;;;;;;3.69;100.00;100595.05;660917;1312;139031;-84
2022/12/20 05:36:55;;;;;;;66.10;29.30;;;;;;;3.73;100.00;100601.94;660884;1304;139132;-81
2022/12/20 05:52:01;;;;;;;58.10;25.00;;;;;;;3.77;100.00;100592.91;660733;1313;139052;-82
2022/12/20 06:07:05;;;;;;;49.30;23.50;;;;;;;3.80;100.00;100599.30;661041;1313;139188;-82
2022/12/20 06:22:09;;;;;;;59.10;27.10;;;;;;;3.85;100.00;100615.84;661168;1304;139257;-81
2022/12/20 06:37:25;;;;;;;61.20;27.90;;;;;;;3.93;100.00;100605.02;660901;1312;139088;-82
2022/12/20 06:52:29;;;;;;;64.60;27.40;;;;;;;3.95;100.00;100608.89;660830;1311;139117;-82
2022/12/20 07:07:33;;;;;;;60.50;32.60;;;;;;;3.96;100.00;100637.41;660972;1298;139179;-83
2022/12/20 07:22:47;;;;;;;60.80;28.80;;;;;;;3.98;100.00;100637.45;661004;1312;139359;-84
2022/12/20 07:37:50;;;;;;;57.70;26.00;;;;;;;3.99;100.00;100650.18;661074;1309;139136;-84
2022/12/20 07:52:54;;;;;;;62.20;26.60;;;;;;;3.97;100.00;100657.59;661068;1312;139036;-83
2022/12/20 08:07:58;;;;;;;56.20;27.20;;;;;;;4.17;100.00;100658.95;661021;1312;139161;-84
2022/12/20 08:23:03;;;;;;;55.80;26.90;;;;;;;4.17;100.00;100637.77;661071;1306;140315;-83
2022/12/20 08:38:06;;;;;;;51.20;27.00;;;;;;;4.16;100.00;100639.27;662118;1305;139326;-83
2022/12/20 08:53:10;;;;;;;51.50;24.40;;;;;;;4.13;100.00;100611.89;660903;1304;140404;-84
2022/12/20 09:08:15;;;;;;;60.00;27.50;;;;;;;4.26;100.00;100627.80;660817;1312;139455;-83
2022/12/20 09:23:18;;;;;;;57.70;25.00;;;;;;;4.48;100.00;100620.85;660769;1311;139487;-83
2022/12/20 09:38:21;;;;;;;50.10;22.80;;;;;;;4.70;100.00;100616.77;660745;1312;139219;-83
2022/12/20 09:53:47;;;;;;;63.60;28.10;;;;;;;4.84;100.00;100635.56;660891;1310;139209;-84
2022/12/20 10:09:00;;;;;;;56.70;26.90;;;;;;;4.91;100.00;100593.74;660845;1304;139477;-84
2022/12/20 10:24:29;;;;;;;72.50;35.50;;;;;;;5.04;100.00;100573.55;660806;1312;139305;-84
2022/12/20 10:39:46;;;;;;;54.10;26.80;;;;;;;5.07;99.99;100571.29;660807;1306;139212;-85
2022/12/20 10:54:49;;;;;;;53.60;22.90;;;;;;;5.12;99.51;100554.19;660997;1305;138901;-83
2022/12/20 11:09:58;;;;;;;47.10;26.10;;;;;;;5.09;97.40;100563.20;660805;1312;138980;-85
2022/12/20 11:25:22;;;;;;;54.80;26.00;;;;;;;5.19;97.93;100549.92;660936;1304;139151;-84
2022/12/20 11:40:34;;;;;;;71.10;37.80;;;;;;;5.33;96.62;100537.30;661109;1310;139306;-84
2022/12/20 11:55:41;;;;;;;53.70;27.10;;;;;;;5.29;96.02;100548.61;661025;1312;139654;-84
2022/12/20 12:10:53;;;;;;;;;;;;;;;5.47;95.80;100529.96;661369;1306;139030;-84
2022/12/20 12:26:01;;;;;;;67.80;33.10;;;;;;;5.45;95.06;100535.48;660913;1313;124956;-84
2022/12/20 12:41:32;;;;;;;63.60;28.80;;;;;;;5.34;94.29;100522.67;660900;1312;139459;-85
2022/12/20 12:56:47;;;;;;;92.20;41.80;;;;;;;5.28;93.99;100518.67;661061;1311;139341;-87
2022/12/20 13:11:52;;;;;;;77.20;35.60;;;;;;;5.39;93.36;100520.65;661237;1312;138911;-88
2022/12/20 13:27:22;;;;;;;68.30;32.80;;;;;;;5.42;93.45;100527.15;660938;1307;138884;-86
2022/12/20 13:42:37;;;;;;;103.00;59.10;;;;;;;5.18;94.90;100512.86;661196;1312;138954;-87
2022/12/20 13:57:43;;;;;;;104.10;43.60;;;;;;;5.01;96.30;100520.66;661017;1312;139556;-87
2022/12/20 14:12:49;;;;;;;71.80;35.90;;;;;;;4.79;97.52;100510.73;660855;1312;163052;-86
2022/12/20 14:27:56;;;;;;;64.20;30.10;;;;;;;4.75;97.47;100499.70;660913;1311;139001;-87
2022/12/20 14:43:14;;;;;;;67.10;32.30;;;;;;;4.78;97.26;100495.73;662058;1303;139312;-86
2022/12/20 14:58:30;;;;;;;73.30;34.60;;;;;;;4.73;98.09;100473.86;660991;1298;139202;-84
2022/12/20 15:13:37;;;;;;;108.20;47.80;;;;;;;4.76;98.58;100474.70;660988;1311;139080;-86
2022/12/20 15:28:41;;;;;;;88.30;37.50;;;;;;;4.81;98.89;100459.48;661161;1312;139249;-86
2022/12/20 15:43:45;;;;;;;71.40;33.20;;;;;;;4.79;99.51;100445.08;661226;1312;139014;-86
2022/12/20 15:58:51;;;;;;;97.20;44.20;;;;;;;4.84;99.58;100450.09;662928;1297;139138;-86
2022/12/20 16:13:58;;;;;;;88.10;41.20;;;;;;;4.95;98.84;100449.96;660787;1307;139232;-86
2022/12/20 16:29:02;;;;;;;64.50;29.10;;;;;;;5.01;98.77;100431.71;660809;1297;139042;-85
2022/12/20 16:44:12;;;;;;;81.60;35.60;;;;;;;5.09;98.27;100435.75;660593;1304;139147;-84
2022/12/20 16:59:15;;;;;;;70.30;34.70;;;;;;;5.12;98.33;100429.14;660608;1298;139110;-85
2022/12/20 17:14:22;;;;;;;71.30;35.50;;;;;;;5.08;98.25;100429.91;660899;1310;139109;-85
2022/12/20 17:29:26;;;;;;;93.90;41.70;;;;;;;5.15;98.20;100427.22;660923;1307;138805;-85
2022/12/20 17:44:30;;;;;;;75.00;33.70;;;;;;;5.08;97.77;100413.95;660796;1312;139009;-86
2022/12/20 17:59:34;;;;;;;86.30;37.70;;;;;;;5.04;97.41;100390.00;661033;1311;138870;-86
2022/12/20 18:14:37;;;;;;;87.10;38.30;;;;;;;5.02;96.43;100384.16;661013;1312;138979;-86
2022/12/20 18:29:41;;;;;;;90.10;36.70;;;;;;;5.08;95.63;100389.89;660916;1299;138893;-82
2022/12/20 18:44:45;;;;;;;92.90;38.10;;;;;;;5.14;95.70;100388.13;660654;1299;139135;-83
2022/12/20 18:59:50;;;;;;;77.40;35.50;;;;;;;5.10;95.88;100368.39;660645;1311;142069;-83
2022/12/20 19:14:54;;;;;;;97.40;47.60;;;;;;;5.17;94.79;100367.29;660813;1299;139096;-84
2022/12/20 19:29:57;;;;;;;96.20;39.50;;;;;;;5.27;94.92;100345.17;660928;1310;138923;-84
2022/12/20 19:45:01;;;;;;;82.20;37.00;;;;;;;5.37;94.24;100331.19;660937;1304;138900;-84
2022/12/20 20:00:07;;;;;;;73.80;30.60;;;;;;;5.42;93.28;100315.59;660882;1311;139147;-83
2022/12/20 20:15:13;;;;;;;70.90;30.50;;;;;;;5.43;92.88;100322.08;660869;1312;139308;-85
2022/12/20 20:30:17;;;;;;;70.60;29.90;;;;;;;5.47;91.57;100323.91;660982;1311;139187;-85
2022/12/20 20:45:20;;;;;;;67.60;29.90;;;;;;;5.62;91.92;100335.27;660839;1312;139864;-85
2022/12/20 21:00:24;;;;;;;64.70;27.90;;;;;;;5.58;91.12;100327.70;660939;1312;138797;-84
2022/12/20 21:15:28;;;;;;;67.10;30.10;;;;;;;5.55;90.07;100311.91;660721;1312;139018;-85
2022/12/20 21:30:32;;;;;;;56.80;27.50;;;;;;;5.63;88.72;100312.81;661028;1305;138758;-85
2022/12/20 21:45:35;;;;;;;67.30;28.00;;;;;;;5.59;89.28;100314.95;661036;1312;139465;-85
2022/12/20 22:00:38;;;;;;;67.80;28.80;;;;;;;5.49;90.19;100308.52;660670;1312;138922;-84
2022/12/20 22:15:41;;;;;;;68.70;28.90;;;;;;;5.39;90.96;100306.73;660742;1310;138922;-84
2022/12/20 22:30:45;;;;;;;65.70;31.30;;;;;;;5.31;92.93;100289.41;660770;1312;138903;-84
2022/12/20 22:45:58;;;;;;;60.90;27.20;;;;;;;5.12;94.74;100259.61;660784;1306;139192;-84
2022/12/20 23:01:04;;;;;;;60.90;27.40;;;;;;;5.09;94.78;100237.42;661149;1311;139211;-84
2022/12/20 23:16:11;;;;;;;63.40;27.60;;;;;;;5.09;94.22;100217.34;660843;1311;138860;-84
2022/12/20 23:31:14;;;;;;;58.70;28.00;;;;;;;5.00;94.67;100191.21;660904;1312;139645;-85
2022/12/20 23:46:19;;;;;;;61.90;27.20;;;;;;;4.94;94.80;100164.08;662343;1303;138899;-85
